createdAt,value
2023-07-04T00:01:26.447Z,99.90
2023-07-04T00:03:56.344Z,99.90
2023-07-04T00:06:27.004Z,99.90
2023-07-04T00:08:56.580Z,99.90
2023-07-04T00:11:24.730Z,99.90
2023-07-04T00:13:52.932Z,99.90
2023-07-04T00:16:21.826Z,99.90
2023-07-04T00:18:50.145Z,99.90
2023-07-04T00:21:20.008Z,99.90
2023-07-04T00:23:53.692Z,99.90
2023-07-04T00:26:25.846Z,99.90
2023-07-04T00:28:54.549Z,99.90
2023-07-04T00:31:25.495Z,99.90
2023-07-04T00:33:55.267Z,99.90
2023-07-04T00:36:23.378Z,99.90
2023-07-04T00:38:57.042Z,99.90
2023-07-04T00:41:30.079Z,99.90
2023-07-04T00:44:00.926Z,99.90
2023-07-04T00:46:40.617Z,99.90
2023-07-04T00:49:19.675Z,99.90
2023-07-04T00:52:02.848Z,99.90
2023-07-04T00:54:36.975Z,99.90
2023-07-04T00:57:08.504Z,99.90
2023-07-04T00:59:44.973Z,99.90
2023-07-04T01:02:14.286Z,99.90
2023-07-04T01:04:42.919Z,99.90
2023-07-04T01:07:23.838Z,99.90
2023-07-04T01:09:57.442Z,99.90
2023-07-04T01:12:29.095Z,99.90
2023-07-04T01:14:57.186Z,99.90
2023-07-04T01:17:26.139Z,99.90
2023-07-04T01:19:54.637Z,99.90
2023-07-04T01:22:31.064Z,99.90
2023-07-04T01:25:10.819Z,99.90
2023-07-04T01:27:42.176Z,99.90
2023-07-04T01:30:14.032Z,99.90
2023-07-04T01:32:43.532Z,99.90
2023-07-04T01:35:13.473Z,99.90
2023-07-04T01:37:42.110Z,99.90
2023-07-04T01:40:11.484Z,99.90
2023-07-04T01:42:41.691Z,99.90
2023-07-04T01:45:11.943Z,99.90
2023-07-04T01:47:41.403Z,99.90
2023-07-04T01:50:11.259Z,99.90
2023-07-04T01:52:39.623Z,99.90
2023-07-04T01:55:09.336Z,99.90
2023-07-04T01:57:37.438Z,99.90
2023-07-04T02:00:10.375Z,99.90
2023-07-04T02:02:39.188Z,99.90
2023-07-04T02:05:07.593Z,99.90
2023-07-04T02:07:35.624Z,99.90
2023-07-04T02:10:03.699Z,99.90
2023-07-04T02:12:31.676Z,99.90
2023-07-04T02:14:59.768Z,99.90
2023-07-04T02:17:29.175Z,99.90
2023-07-04T02:19:57.325Z,99.90
2023-07-04T02:22:25.460Z,99.90
2023-07-04T02:24:53.470Z,99.90
2023-07-04T02:27:21.448Z,99.90
2023-07-04T02:29:49.781Z,99.90
2023-07-04T02:32:17.956Z,99.90
2023-07-04T02:34:47.286Z,99.90
2023-07-04T02:37:15.331Z,99.90
2023-07-04T02:39:43.391Z,99.90
2023-07-04T02:42:11.362Z,99.90
2023-07-04T02:44:39.363Z,99.90
2023-07-04T02:47:07.695Z,99.90
2023-07-04T02:49:36.484Z,99.90
2023-07-04T02:52:06.571Z,99.90
2023-07-04T02:54:34.643Z,99.90
2023-07-04T02:57:02.685Z,99.90
2023-07-04T02:59:31.105Z,99.90
2023-07-04T03:01:59.081Z,99.90
2023-07-04T03:04:27.170Z,99.90
2023-07-04T03:06:55.262Z,99.90
2023-07-04T03:09:24.811Z,99.90
2023-07-04T03:11:52.790Z,99.90
2023-07-04T03:14:20.840Z,99.90
2023-07-04T03:16:48.996Z,99.90
2023-07-04T03:19:17.026Z,99.90
2023-07-04T03:21:45.031Z,99.90
2023-07-04T03:24:13.013Z,99.90
2023-07-04T03:26:46.371Z,99.90
2023-07-04T03:29:14.421Z,99.90
2023-07-04T03:31:42.527Z,99.90
2023-07-04T03:34:10.530Z,99.90
2023-07-04T03:36:38.513Z,99.90
2023-07-04T03:39:07.076Z,99.90
2023-07-04T03:41:35.193Z,99.90
2023-07-04T03:44:04.664Z,99.90
2023-07-04T03:46:32.776Z,99.90
2023-07-04T03:49:01.017Z,99.90
2023-07-04T03:51:29.218Z,99.90
2023-07-04T03:53:57.212Z,99.90
2023-07-04T03:56:25.225Z,99.90
2023-07-04T03:58:53.343Z,99.90
2023-07-04T04:01:23.001Z,99.90
2023-07-04T04:03:54.584Z,99.90
2023-07-04T04:06:23.023Z,99.90
2023-07-04T04:08:51.092Z,99.90
2023-07-04T04:11:19.105Z,99.90
2023-07-04T04:13:47.512Z,99.90
2023-07-04T04:16:15.620Z,99.90
2023-07-04T04:18:45.056Z,99.90
2023-07-04T04:21:13.060Z,99.90
2023-07-04T04:23:41.051Z,99.90
2023-07-04T04:26:09.578Z,99.90
2023-07-04T04:28:37.605Z,99.90
2023-07-04T04:31:05.604Z,99.90
2023-07-04T04:33:33.885Z,99.90
2023-07-04T04:36:03.812Z,99.90
2023-07-04T04:38:31.918Z,99.90
2023-07-04T04:41:05.178Z,99.90
2023-07-04T04:43:34.577Z,99.90
2023-07-04T04:46:03.173Z,99.90
2023-07-04T04:48:36.633Z,99.90
2023-07-04T04:51:09.740Z,99.90
2023-07-04T04:53:38.496Z,99.90
2023-07-04T04:56:07.172Z,99.90
2023-07-04T04:58:35.447Z,99.90
2023-07-04T05:01:08.260Z,99.90
2023-07-04T05:03:36.290Z,99.90
2023-07-04T05:06:06.233Z,99.90
2023-07-04T05:08:36.066Z,99.90
2023-07-04T05:11:06.180Z,99.90
2023-07-04T05:13:35.074Z,99.90
2023-07-04T05:16:03.919Z,99.90
2023-07-04T05:18:33.645Z,99.90
2023-07-04T05:21:02.520Z,99.90
2023-07-04T05:23:31.468Z,99.90
2023-07-04T05:26:06.012Z,99.90
2023-07-04T05:28:34.354Z,99.90
2023-07-04T05:31:04.662Z,99.90
2023-07-04T05:33:34.120Z,99.90
2023-07-04T05:36:10.466Z,99.90
2023-07-04T05:38:39.332Z,99.90
2023-07-04T05:41:11.570Z,99.90
2023-07-04T05:43:39.658Z,99.90
2023-07-04T05:46:08.941Z,99.90
2023-07-04T05:48:37.775Z,99.90
2023-07-04T05:51:07.484Z,99.90
2023-07-04T05:53:36.986Z,99.90
2023-07-04T05:56:10.916Z,99.90
2023-07-04T05:58:40.001Z,99.90
2023-07-04T06:01:10.710Z,99.90
2023-07-04T06:03:42.296Z,99.90
2023-07-04T06:06:19.577Z,99.90
2023-07-04T06:08:47.907Z,99.90
2023-07-04T06:11:18.633Z,99.90
2023-07-04T06:13:46.801Z,99.90
2023-07-04T06:16:15.082Z,99.90
2023-07-04T06:18:44.618Z,99.90
2023-07-04T06:21:14.466Z,99.90
2023-07-04T06:23:43.016Z,99.90
2023-07-04T06:26:12.354Z,99.90
2023-07-04T06:28:43.185Z,99.90
2023-07-04T06:31:14.077Z,99.90
2023-07-04T06:33:45.373Z,99.90
2023-07-04T06:36:15.298Z,99.90
2023-07-04T06:38:43.632Z,99.90
2023-07-04T06:41:13.558Z,99.90
2023-07-04T06:43:46.873Z,99.90
2023-07-04T06:46:16.977Z,99.90
2023-07-04T06:48:47.612Z,99.90
2023-07-04T06:51:16.739Z,99.90
2023-07-04T06:53:45.589Z,99.90
2023-07-04T06:56:15.607Z,99.90
2023-07-04T06:58:48.119Z,99.90
2023-07-04T07:01:16.810Z,99.90
2023-07-04T07:03:45.330Z,99.90
2023-07-04T07:06:14.559Z,99.90
2023-07-04T07:08:43.092Z,99.90
2023-07-04T07:11:14.075Z,99.90
2023-07-04T07:13:44.445Z,99.90
2023-07-04T07:16:14.664Z,99.90
2023-07-04T07:18:44.237Z,99.90
2023-07-04T07:21:14.438Z,99.90
2023-07-04T07:23:43.165Z,99.90
2023-07-04T07:26:13.667Z,99.90
2023-07-04T07:28:43.454Z,99.90
2023-07-04T07:31:16.081Z,99.90
2023-07-04T07:33:46.793Z,99.90
2023-07-04T07:36:17.805Z,99.90
2023-07-04T07:38:45.871Z,99.90
2023-07-04T07:41:13.936Z,99.90
2023-07-04T07:43:43.302Z,99.90
2023-07-04T07:46:14.829Z,99.90
2023-07-04T07:48:43.720Z,99.90
2023-07-04T07:51:13.815Z,99.90
2023-07-04T07:53:43.816Z,99.90
2023-07-04T07:56:13.515Z,99.90
2023-07-04T07:58:41.861Z,99.90
2023-07-04T08:01:15.423Z,99.90
2023-07-04T08:03:44.508Z,99.90
2023-07-04T08:06:22.498Z,99.90
2023-07-04T08:08:50.521Z,99.90
2023-07-04T08:11:19.251Z,99.90
2023-07-04T08:13:47.940Z,99.90
2023-07-04T08:16:21.669Z,99.90
2023-07-04T08:18:50.462Z,99.90
2023-07-04T08:21:19.334Z,99.90
2023-07-04T08:23:47.483Z,99.90
2023-07-04T08:26:20.333Z,99.90
2023-07-04T08:28:48.559Z,99.90
2023-07-04T08:31:19.499Z,99.90
2023-07-04T08:33:48.318Z,99.90
2023-07-04T08:36:17.899Z,99.90
2023-07-04T08:38:48.312Z,99.90
2023-07-04T08:41:27.752Z,99.90
2023-07-04T08:44:01.133Z,99.90
2023-07-04T08:46:36.736Z,99.90
2023-07-04T08:49:05.519Z,99.90
2023-07-04T08:51:40.928Z,99.90
2023-07-04T08:54:14.050Z,99.90
2023-07-04T08:56:42.508Z,99.90
2023-07-04T08:59:25.451Z,99.90
2023-07-04T09:02:09.425Z,99.90
2023-07-04T09:04:48.217Z,99.90
2023-07-04T09:07:26.502Z,99.90
2023-07-04T09:10:04.399Z,99.90
2023-07-04T09:12:36.843Z,99.80
2023-07-04T09:15:15.124Z,99.40
2023-07-04T09:18:00.098Z,99.40
2023-07-04T09:20:39.376Z,99.50
2023-07-04T09:23:13.748Z,99.40
2023-07-04T09:25:41.984Z,99.80
2023-07-04T09:28:10.172Z,99.10
2023-07-04T09:30:39.699Z,98.80
2023-07-04T09:33:10.567Z,98.50
2023-07-04T09:35:38.777Z,98.60
2023-07-04T09:38:06.816Z,98.10
2023-07-04T09:40:47.232Z,97.90
2023-07-04T09:43:28.272Z,98.50
2023-07-04T09:46:19.860Z,98.40
2023-07-04T09:48:51.059Z,97.90
2023-07-04T09:51:27.134Z,97.90
2023-07-04T09:54:13.800Z,97.70
2023-07-04T09:56:42.750Z,98.40
2023-07-04T09:59:16.293Z,97.70
2023-07-04T10:01:46.927Z,97.80
2023-07-04T10:04:26.947Z,97.70
2023-07-04T10:06:57.245Z,97.70
2023-07-04T10:09:25.311Z,97.60
2023-07-04T10:12:09.202Z,97.50
2023-07-04T10:14:39.402Z,98.00
2023-07-04T10:17:12.879Z,98.30
2023-07-04T10:19:47.297Z,98.50
2023-07-04T10:22:24.218Z,98.50
2023-07-04T10:24:52.792Z,98.60
2023-07-04T10:27:22.172Z,98.40
2023-07-04T10:29:55.505Z,98.10
2023-07-04T10:32:25.103Z,98.30
2023-07-04T10:34:55.253Z,98.10
2023-07-04T10:37:28.285Z,98.10
2023-07-04T10:40:00.514Z,97.40
2023-07-04T10:42:33.367Z,97.40
2023-07-04T10:45:02.979Z,97.10
2023-07-04T10:47:34.586Z,97.30
2023-07-04T10:50:10.908Z,96.90
2023-07-04T10:52:40.182Z,95.90
2023-07-04T10:55:10.269Z,95.20
2023-07-04T10:57:43.530Z,96.10
2023-07-04T11:00:20.838Z,94.30
2023-07-04T11:02:53.129Z,94.20
2023-07-04T11:05:32.667Z,94.90
2023-07-04T11:08:01.763Z,94.90
2023-07-04T11:10:32.287Z,94.80
2023-07-04T11:13:00.604Z,94.30
2023-07-04T11:15:33.659Z,93.80
2023-07-04T11:18:02.830Z,94.30
2023-07-04T11:20:55.062Z,94.40
2023-07-04T11:23:25.847Z,93.80
2023-07-04T11:26:11.773Z,93.10
2023-07-04T11:28:51.077Z,92.30
2023-07-04T11:31:29.406Z,92.30
2023-07-04T11:34:06.691Z,92.40
2023-07-04T11:36:38.552Z,92.70
2023-07-04T11:39:23.118Z,92.60
2023-07-04T11:41:51.743Z,91.80
2023-07-04T11:44:25.290Z,91.70
2023-07-04T11:47:00.555Z,91.20
2023-07-04T11:49:29.623Z,90.80
2023-07-04T11:52:07.781Z,91.00
2023-07-04T11:54:37.180Z,90.10
2023-07-04T11:57:15.206Z,90.10
2023-07-04T11:59:45.570Z,90.30
2023-07-04T12:02:31.871Z,90.20
2023-07-04T12:05:06.056Z,90.00
2023-07-04T12:07:45.605Z,90.00
2023-07-04T12:10:18.768Z,90.80
2023-07-04T12:12:48.020Z,90.40
2023-07-04T12:15:21.197Z,90.10
2023-07-04T12:17:51.250Z,90.30
2023-07-04T12:20:22.008Z,90.40
2023-07-04T12:22:53.835Z,90.80
2023-07-04T12:25:25.617Z,91.10
2023-07-04T12:27:55.262Z,90.90
2023-07-04T12:30:23.307Z,91.40
2023-07-04T12:32:53.372Z,90.70
2023-07-04T12:35:26.259Z,90.70
2023-07-04T12:37:58.602Z,90.60
2023-07-04T12:40:30.356Z,90.40
2023-07-04T12:45:33.183Z,89.20
2023-07-04T12:50:36.020Z,90.00
2023-07-04T12:53:06.164Z,90.00
2023-07-04T12:55:40.261Z,89.60
2023-07-04T12:58:09.133Z,90.20
2023-07-04T13:00:44.763Z,90.10
2023-07-04T13:03:14.564Z,90.20
2023-07-04T13:05:44.880Z,89.00
2023-07-04T13:08:16.955Z,89.50
2023-07-04T13:10:49.894Z,88.60
2023-07-04T13:13:32.537Z,89.80
2023-07-04T13:16:17.208Z,90.20
2023-07-04T13:18:48.380Z,89.60
2023-07-04T13:21:30.994Z,89.50
2023-07-04T13:26:33.988Z,89.50
2023-07-04T13:34:17.009Z,87.80
2023-07-04T13:36:47.516Z,87.80
2023-07-04T13:41:51.246Z,87.50
2023-07-04T13:46:51.782Z,87.30
2023-07-04T13:49:19.863Z,89.00
2023-07-04T13:51:48.006Z,89.50
2023-07-04T13:54:16.130Z,90.50
2023-07-04T13:56:44.118Z,90.60
2023-07-04T13:59:13.485Z,90.50
2023-07-04T14:06:43.577Z,92.20
2023-07-04T14:09:11.598Z,92.20
2023-07-04T14:11:39.636Z,92.20
2023-07-04T14:16:36.113Z,92.50
2023-07-04T14:17:29.149Z,91.90
2023-07-04T14:22:18.607Z,90.70
2023-07-04T14:24:46.784Z,91.20
2023-07-04T14:27:20.780Z,91.30
2023-07-04T14:29:58.453Z,91.60
2023-07-04T14:32:27.853Z,91.80
2023-07-04T14:34:56.220Z,91.70
2023-07-04T14:37:24.373Z,91.30
2023-07-04T14:39:53.293Z,91.50
2023-07-04T14:44:53.257Z,92.00
2023-07-04T14:47:22.403Z,92.20
2023-07-04T14:49:51.947Z,92.50
2023-07-04T14:52:19.944Z,91.60
2023-07-04T14:54:47.976Z,90.60
2023-07-04T14:57:15.945Z,83.80
2023-07-04T14:59:43.980Z,77.60
2023-07-04T15:02:12.109Z,74.00
2023-07-04T15:04:40.145Z,67.90
2023-07-04T15:07:09.842Z,64.20
2023-07-04T15:09:38.680Z,60.60
2023-07-04T15:12:07.145Z,58.10
2023-07-04T15:14:35.337Z,56.80
2023-07-04T15:17:03.289Z,55.00
2023-07-04T15:19:31.242Z,54.00
2023-07-04T15:21:59.258Z,52.30
2023-07-04T15:24:28.580Z,53.10
2023-07-04T15:26:56.597Z,52.20
2023-07-04T15:29:25.125Z,53.20
2023-07-04T15:31:53.977Z,53.40
2023-07-04T15:34:22.236Z,53.90
2023-07-04T15:37:09.217Z,56.10
2023-07-04T15:39:38.714Z,56.10
2023-07-04T15:42:07.936Z,56.80
2023-07-04T15:44:35.935Z,60.60
2023-07-04T15:47:04.053Z,66.00
2023-07-04T15:49:32.108Z,68.40
2023-07-04T15:52:00.220Z,70.30
2023-07-04T15:54:29.027Z,72.80
2023-07-04T15:56:58.364Z,73.80
2023-07-04T15:59:26.472Z,75.50
2023-07-04T16:01:54.462Z,76.00
2023-07-04T16:04:22.519Z,80.90
2023-07-04T16:06:50.585Z,79.10
2023-07-04T16:09:18.572Z,76.10
2023-07-04T16:11:46.605Z,76.20
2023-07-04T16:14:15.934Z,77.00
2023-07-04T16:16:44.093Z,78.20
2023-07-04T16:19:12.348Z,78.60
2023-07-04T16:21:40.315Z,79.10
2023-07-04T16:24:08.595Z,77.40
2023-07-04T16:26:36.609Z,78.90
2023-07-04T16:29:04.676Z,79.20
2023-07-04T16:31:34.132Z,80.80
2023-07-04T16:34:02.127Z,80.40
2023-07-04T16:36:30.389Z,80.20
2023-07-04T16:38:58.371Z,83.40
2023-07-04T16:41:27.158Z,86.40
2023-07-04T16:43:55.152Z,86.20
2023-07-04T16:46:23.199Z,86.50
2023-07-04T16:48:52.692Z,84.60
2023-07-04T16:51:21.004Z,80.80
2023-07-04T16:53:50.099Z,79.10
2023-07-04T16:56:18.124Z,80.10
2023-07-04T16:58:47.365Z,80.70
2023-07-04T17:01:15.457Z,79.90
2023-07-04T17:03:45.644Z,78.40
2023-07-04T17:06:15.338Z,78.60
2023-07-04T17:08:43.934Z,78.00
2023-07-04T17:11:13.949Z,77.50
2023-07-04T17:13:41.992Z,77.60
2023-07-04T17:16:11.289Z,77.90
2023-07-04T17:18:39.493Z,77.60
2023-07-04T17:21:08.460Z,78.00
2023-07-04T17:23:38.222Z,78.10
2023-07-04T17:26:06.668Z,77.30
2023-07-04T17:28:35.558Z,77.60
2023-07-04T17:31:06.757Z,77.80
2023-07-04T17:33:35.128Z,77.70
2023-07-04T17:36:04.824Z,78.20
2023-07-04T17:38:34.607Z,78.20
2023-07-04T17:41:06.033Z,78.10
2023-07-04T17:43:34.035Z,78.50
2023-07-04T17:46:03.109Z,78.30
2023-07-04T17:48:31.967Z,78.50
2023-07-04T17:51:04.486Z,79.00
2023-07-04T17:53:32.602Z,79.50
2023-07-04T17:56:00.993Z,78.00
2023-07-04T17:58:30.342Z,78.60
2023-07-04T18:01:02.134Z,78.70
2023-07-04T18:03:31.073Z,78.30
2023-07-04T18:05:59.374Z,78.50
2023-07-04T18:08:27.720Z,79.30
2023-07-04T18:10:55.942Z,79.60
2023-07-04T18:13:24.629Z,80.10
2023-07-04T18:15:55.206Z,80.00
2023-07-04T18:18:25.433Z,80.10
2023-07-04T18:21:03.054Z,80.40
2023-07-04T18:23:31.171Z,80.90
2023-07-04T18:26:02.172Z,81.00
2023-07-04T18:28:30.673Z,81.80
2023-07-04T18:31:04.641Z,83.20
2023-07-04T18:33:32.812Z,83.60
2023-07-04T18:36:01.072Z,84.20
2023-07-04T18:38:29.100Z,85.20
2023-07-04T18:40:57.128Z,85.90
2023-07-04T18:43:25.181Z,86.60
2023-07-04T18:45:53.190Z,86.40
2023-07-04T18:48:22.535Z,85.70
2023-07-04T18:50:50.546Z,85.60
2023-07-04T18:53:18.619Z,85.60
2023-07-04T18:55:46.654Z,86.70
2023-07-04T18:58:14.644Z,87.40
2023-07-04T19:00:42.623Z,88.10
2023-07-04T19:03:10.830Z,88.40
2023-07-04T19:05:40.313Z,88.70
2023-07-04T19:08:08.297Z,89.00
2023-07-04T19:10:43.971Z,88.80
2023-07-04T19:13:12.043Z,89.10
2023-07-04T19:15:40.228Z,89.60
2023-07-04T19:18:08.299Z,90.10
2023-07-04T19:20:42.114Z,90.80
2023-07-04T19:23:11.637Z,91.20
2023-07-04T19:25:39.970Z,91.90
2023-07-04T19:28:11.562Z,92.60
2023-07-04T19:30:39.560Z,93.40
2023-07-04T19:33:07.608Z,94.20
2023-07-04T19:35:45.650Z,94.50
2023-07-04T19:38:14.988Z,94.50
2023-07-04T19:40:42.986Z,96.40
2023-07-04T19:43:10.981Z,98.80
2023-07-04T19:45:38.946Z,99.90
2023-07-04T19:48:07.855Z,99.90
2023-07-04T19:50:35.914Z,99.90
2023-07-04T19:53:03.905Z,99.90
2023-07-04T19:55:36.768Z,99.90
2023-07-04T19:58:04.939Z,99.90
2023-07-04T20:00:32.945Z,99.90
2023-07-04T20:03:01.119Z,99.90
2023-07-04T20:05:32.216Z,99.90
2023-07-04T20:08:01.350Z,99.90
2023-07-04T20:10:30.832Z,99.90
2023-07-04T20:13:00.180Z,99.90
2023-07-04T20:15:28.162Z,99.90
2023-07-04T20:17:56.187Z,99.90
2023-07-04T20:20:24.670Z,99.90
2023-07-04T20:22:52.727Z,99.90
2023-07-04T20:25:20.698Z,99.90
2023-07-04T20:27:48.770Z,99.90
2023-07-04T20:30:18.216Z,99.90
2023-07-04T20:32:46.200Z,99.90
2023-07-04T20:35:14.198Z,99.90
2023-07-04T20:37:42.195Z,99.90
2023-07-04T20:40:11.116Z,99.90
2023-07-04T20:42:39.127Z,99.90
2023-07-04T20:45:08.190Z,99.90
2023-07-04T20:47:38.377Z,99.90
2023-07-04T20:50:07.562Z,99.90
2023-07-04T20:52:36.008Z,99.90
2023-07-04T20:55:07.144Z,99.90
2023-07-04T20:57:37.250Z,99.90
2023-07-04T21:00:11.697Z,99.90
2023-07-04T21:02:42.262Z,99.90
2023-07-04T21:05:12.260Z,99.90
2023-07-04T21:07:41.074Z,99.90
2023-07-04T21:10:10.781Z,99.90
2023-07-04T21:12:39.098Z,99.90
2023-07-04T21:15:08.987Z,99.90
2023-07-04T21:17:40.285Z,99.90
2023-07-04T21:20:10.857Z,99.90
2023-07-04T21:22:38.860Z,99.90
2023-07-04T21:25:07.444Z,99.90
2023-07-04T21:27:35.493Z,99.90
2023-07-04T21:30:03.777Z,99.90
2023-07-04T21:32:31.971Z,99.90
2023-07-04T21:35:00.625Z,99.90
2023-07-04T21:37:30.170Z,99.90
2023-07-04T21:39:58.609Z,99.90
2023-07-04T21:42:26.736Z,99.90
2023-07-04T21:44:55.179Z,99.90
2023-07-04T21:47:23.694Z,99.90
2023-07-04T21:49:51.710Z,99.90
2023-07-04T21:52:19.730Z,99.90
2023-07-04T21:54:50.247Z,99.90
2023-07-04T21:57:18.242Z,99.90
2023-07-04T21:59:46.486Z,99.90
2023-07-04T22:02:22.197Z,99.90
2023-07-04T22:04:52.209Z,99.90
2023-07-04T22:07:20.319Z,99.90
2023-07-04T22:09:49.665Z,99.90
2023-07-04T22:12:17.731Z,99.90
2023-07-04T22:14:45.720Z,99.90
2023-07-04T22:17:14.046Z,99.90
2023-07-04T22:19:42.043Z,99.90
2023-07-04T22:22:10.139Z,99.90
2023-07-04T22:24:39.169Z,99.90
2023-07-04T22:27:08.889Z,99.90
2023-07-04T22:29:37.068Z,99.90
2023-07-04T22:32:05.287Z,99.90
2023-07-04T22:34:34.223Z,99.90
2023-07-04T22:37:02.300Z,99.90
2023-07-04T22:39:30.577Z,99.90
2023-07-04T22:42:02.480Z,99.90
2023-07-04T22:44:32.006Z,99.90
2023-07-04T22:47:00.116Z,99.90
2023-07-04T22:49:28.356Z,99.90
2023-07-04T22:51:56.352Z,99.90
2023-07-04T22:54:24.310Z,99.90
2023-07-04T22:56:52.313Z,99.90
2023-07-04T22:59:20.322Z,99.90
2023-07-04T23:01:49.656Z,99.90
2023-07-04T23:04:17.670Z,99.90
2023-07-04T23:06:45.712Z,99.90
2023-07-04T23:09:13.715Z,99.90
2023-07-04T23:11:41.735Z,99.90
2023-07-04T23:14:09.743Z,99.90
2023-07-04T23:16:37.706Z,99.90
2023-07-04T23:19:09.438Z,99.90
2023-07-04T23:21:37.563Z,99.90
2023-07-04T23:24:06.322Z,99.90
2023-07-04T23:26:34.295Z,99.90
2023-07-04T23:29:02.256Z,99.90
2023-07-04T23:31:30.421Z,99.90
2023-07-04T23:33:59.486Z,99.90
2023-07-04T23:36:28.897Z,99.90
2023-07-04T23:38:56.891Z,99.90
2023-07-04T23:41:25.011Z,99.90
2023-07-04T23:43:52.972Z,99.90
2023-07-04T23:46:22.174Z,99.90
2023-07-04T23:48:50.464Z,99.90
2023-07-04T23:51:18.749Z,99.90
2023-07-04T23:53:48.092Z,99.90
2023-07-04T23:56:19.627Z,99.90
2023-07-04T23:58:47.849Z,99.90
